EW9065 Weather Reports


Display with metric or nautical units.
time (UTC)temp
F
wind
direction
speed
MPH
gust
MPH
rain 1hr
in
rain 24hr
in
rain mn
in
humidity
%
barometer
mb
20210728070052 64 243 0.0 0.0 0.00 0.23 0.00 94 1008.8
20210728064552 64 243 0.0 0.0 0.00 0.23 0.00 94 1008.6
20210728063045 64 243 0.0 0.0 0.00 0.23 0.00 94 1008.8
20210728061546 64 243 0.0 0.0 0.00 0.23 0.00 94 1008.5
20210728060038 64 243 0.0 0.0 0.00 0.23 0.00 94 1008.6
20210728054544 64 243 0.0 0.0 0.00 0.23 0.00 94 1008.7
20210728053103 64 243 0.0 0.0 0.00 0.23 0.00 94 1008.7
20210728051612 64 243 0.0 0.0 0.00 0.23 0.00 94 1008.7
20210728050046 65 243 0.0 0.0 0.00 0.23 0.00 94 1008.6
20210728044606 65 243 0.0 0.0 0.00 0.23 0.00 93 1008.7
20210728043028 65 243 0.0 0.0 0.00 0.23 0.00 93 1008.7
20210728041559 65 243 0.0 0.0 0.00 0.23 0.00 94 1008.7
20210728040056 65 243 0.0 0.0 0.00 0.23 0.00 94 1008.6
20210728034556 65 243 0.0 0.0 0.00 0.23 0.23 93 1008.7
20210728033017 65 243 0.0 0.0 0.00 0.23 0.23 94 1008.7
20210728031626 65 243 0.0 0.0 0.00 0.23 0.23 93 1008.8
20210728030033 65 243 0.0 0.0 0.00 0.23 0.23 93 1009.1
20210728024548 65 243 0.0 0.0 0.00 0.23 0.23 93 1009.3
20210728023020 65 243 0.0 0.0 0.00 0.23 0.23 93 1009.3
20210728021521 65 243 0.0 0.0 0.00 0.23 0.23 93 1009.3
20210728020011 65 243 0.0 0.0 0.00 0.23 0.23 93 1009.2
20210728014514 65 243 0.0 0.0 0.01 0.23 0.23 93 1009.2
20210728013007 65 243 0.0 0.0 0.02 0.23 0.23 93 1009.0
20210728011506 65 243 0.0 0.0 0.04 0.23 0.23 93 1008.6
20210728010006 65 243 0.0 0.0 0.06 0.23 0.23 93 1008.7
20210728004507 65 243 0.0 0.0 0.10 0.22 0.22 93 1008.3
20210728003003 65 242 0.0 0.0 0.13 0.21 0.21 93 1008.4
20210728001505 65 242 0.0 0.0 0.14 0.19 0.19 93 1008.6
20210728000020 65 242 0.0 0.0 0.12 0.17 0.17 92 1008.7
20210727234639 66 243 0.0 0.0 0.09 0.12 0.12 92 1008.7
20210727233131 66 243 0.0 0.0 0.07 0.08 0.08 92 1008.7
20210727231719 67 242 0.0 0.0 0.05 0.05 0.05 91 1008.4
20210727230308 68 46 0.0 0.0 0.05 0.05 0.05 89 1007.8
20210727224623 70 98 0.0 0.0 0.03 0.03 0.03 86 1008.2
20210727223112 75 69 0.0 0.0 0.01 0.01 0.01 86 1007.8
20210727221647 76 141 0.0 0.0 0.00 0.00 0.00 83 1006.5
20210727220225 76 141 0.0 0.0 0.00 0.00 0.00 82 1006.3
20210727214626 77 141 0.0 0.0 0.00 0.00 0.00 82 1006.3
20210727213206 78 141 0.0 0.0 0.00 0.00 0.00 78 1006.3
20210727211637 78 141 0.0 0.0 0.00 0.00 0.00 76 1006.3
20210727210142 80 140 0.0 0.0 0.00 0.00 0.00 76 1006.3
20210727204710 80 140 0.0 0.0 0.00 0.00 0.00 71 1006.4
20210727203133 82 139 0.0 0.0 0.00 0.00 0.00 66 1006.2
20210727201702 82 139 0.0 0.0 0.00 0.00 0.00 64 1006.4
20210727200134 83 139 0.0 0.0 0.00 0.00 0.00 60 1006.5
20210727194641 85 140 0.0 0.0 0.00 0.00 0.00 62 1006.7
20210727193154 85 141 0.0 0.0 0.00 0.00 0.00 62 1006.8
20210727191637 85 141 0.0 0.0 0.00 0.00 0.00 57 1006.8
20210727190113 86 118 0.0 0.0 0.00 0.00 0.00 57 1007.0
20210727184609 86 190 0.0 0.0 0.00 0.00 0.00 55 1007.2
20210727183208 86 92 0.0 0.0 0.00 0.00 0.00 56 1007.2
20210727181712 86 67 0.0 0.0 0.00 0.00 0.00 55 1007.3
20210727180121 85 171 0.0 0.0 0.00 0.00 0.00 55 1007.3
20210727174632 85 170 0.0 0.0 0.00 0.00 0.00 57 1007.5
20210727173129 85 197 0.0 0.0 0.00 0.00 0.00 58 1007.6
20210727171547 84 134 0.0 0.0 0.00 0.00 0.00 59 1007.8
20210727170243 84 210 0.0 0.0 0.00 0.00 0.00 61 1007.9
20210727164551 83 126 0.0 0.0 0.00 0.00 0.00 57 1007.9
20210727163051 83 181 0.0 0.0 0.00 0.00 0.00 58 1008.1
20210727161607 83 168 0.0 0.0 0.00 0.00 0.00 60 1008.2
20210727160117 82 113 0.0 0.0 0.00 0.00 0.00 61 1008.1
20210727154527 82 142 0.0 0.0 0.00 0.00 0.00 62 1008.3
20210727153115 81 205 0.0 0.0 0.00 0.00 0.00 61 1008.4
20210727151534 80 185 0.0 0.0 0.00 0.00 0.00 66 1008.4
20210727150027 79 113 0.0 0.0 0.00 0.00 0.00 66 1008.6
20210727144519 78 182 0.0 0.0 0.00 0.00 0.00 65 1008.5
20210727143040 77 220 0.0 0.0 0.00 0.00 0.00 68 1008.3
20210727141510 76 109 0.0 0.0 0.00 0.00 0.00 68 1008.2
20210727140203 75 214 0.0 0.0 0.00 0.00 0.00 71 1008.2
20210727134626 74 169 0.0 0.0 0.00 0.00 0.00 73 1008.4
20210727133124 73 199 0.0 0.0 0.00 0.00 0.00 78 1008.6
20210727131557 71 167 0.0 0.0 0.00 0.00 0.00 79 1008.4
20210727130122 70 103 0.0 0.0 0.00 0.00 0.00 83 1008.3
20210727124549 69 129 0.0 0.0 0.00 0.00 0.00 86 1008.3
20210727123046 67 164 0.0 0.0 0.00 0.00 0.00 90 1008.2
20210727121622 66 164 0.0 0.0 0.00 0.00 0.00 91 1008.3
20210727120128 65 164 0.0 0.0 0.00 0.00 0.00 92 1008.1
20210727114619 65 164 0.0 0.0 0.00 0.00 0.00 93 1008.0
20210727113054 64 164 0.0 0.0 0.00 0.00 0.00 93 1008.0
20210727111710 63 164 0.0 0.0 0.00 0.00 0.00 93 1008.0
20210727110028 63 164 0.0 0.0 0.00 0.00 0.00 93 1008.1
20210727104604 63 164 0.0 0.0 0.00 0.00 0.00 93 1008.2
20210727103055 62 164 0.0 0.0 0.00 0.00 0.00 93 1008.0
20210727101534 62 164 0.0 0.0 0.00 0.00 0.00 93 1007.9
20210727100015 62 164 0.0 0.0 0.00 0.00 0.00 93 1007.8
20210727094519 62 164 0.0 0.0 0.00 0.00 0.00 93 1007.6
20210727093014 63 164 0.0 0.0 0.00 0.00 0.00 93 1007.4
20210727091559 63 164 0.0 0.0 0.00 0.00 0.00 93 1007.3
20210727090008 63 164 0.0 0.0 0.00 0.00 0.00 93 1007.1
20210727084519 63 164 0.0 0.0 0.00 0.00 0.00 93 1007.0
20210727083005 63 164 0.0 0.0 0.00 0.00 0.00 93 1006.9
20210727081523 63 164 0.0 0.0 0.00 0.00 0.00 93 1006.7
20210727080017 63 164 0.0 0.0 0.00 0.00 0.00 93 1006.7
20210727074501 64 164 0.0 0.0 0.00 0.00 0.00 93 1006.7
20210727073001 64 164 0.0 0.0 0.00 0.00 0.00 93 1006.8
20210727071641 64 164 0.0 0.0 0.00 0.00 0.00 93 1006.8